Time;durP1;ratioP1;P1;durP2;ratioP2;P2;SDS_P1;SDS_P2;PMS_P1;PMS_P2;Temp;Humidity;BMP_temperature;BMP_pressure;BME280_temperature;BME280_humidity;BME280_pressure;Samples;Min_cycle;Max_cycle;Signal;HPM_P1;HPM_P2
2022/06/28 00:02:05;;;;;;;1.98;1.88;;;19.80;99.90;;;;;;5032961;28;20213;-75
2022/06/28 00:04:55;;;;;;;0.40;0.40;;;19.70;99.90;;;;;;5032097;28;20715;-75
2022/06/28 00:07:48;;;;;;;1.20;1.20;;;19.50;99.90;;;;;;5032834;28;20221;-73
2022/06/28 00:10:36;;;;;;;0.68;0.68;;;19.50;99.90;;;;;;5032011;28;20233;-74
2022/06/28 00:13:24;;;;;;;0.40;0.40;;;19.40;99.90;;;;;;5032629;28;20220;-74
2022/06/28 00:16:16;;;;;;;0.47;0.47;;;19.40;99.90;;;;;;5032606;28;20264;-75
2022/06/28 00:19:04;;;;;;;0.63;0.60;;;19.50;99.90;;;;;;5032709;28;20202;-71
2022/06/28 00:21:53;;;;;;;0.40;0.40;;;19.40;99.90;;;;;;5032654;28;20674;-74
2022/06/28 00:24:42;;;;;;;0.40;0.40;;;19.50;99.90;;;;;;5031777;28;20303;-74
2022/06/28 00:27:30;;;;;;;0.40;0.40;;;19.50;99.90;;;;;;5032566;28;20245;-76
2022/06/28 00:30:18;;;;;;;0.40;0.40;;;19.60;99.90;;;;;;5031248;28;20336;-73
2022/06/28 00:33:06;;;;;;;0.50;0.50;;;19.50;99.90;;;;;;5031990;28;20209;-72
2022/06/28 00:35:54;;;;;;;0.77;0.73;;;19.60;99.90;;;;;;5088792;22;20294;-71
2022/06/28 00:38:43;;;;;;;0.93;0.90;;;19.60;99.90;;;;;;5093727;28;20203;-72
2022/06/28 00:41:32;;;;;;;0.90;0.90;;;19.60;99.90;;;;;;5092613;28;20336;-71
2022/06/28 00:44:21;;;;;;;3.13;2.53;;;19.70;99.90;;;;;;5093954;28;20224;-71
2022/06/28 00:47:09;;;;;;;1.20;0.75;;;19.50;99.90;;;;;;5092285;28;20690;-70
2022/06/28 00:49:59;;;;;;;0.40;0.40;;;19.40;99.90;;;;;;5092245;28;20224;-71
2022/06/28 00:53:07;;;;;;;0.40;0.40;;;19.40;99.90;;;;;;5093995;28;20192;-71
2022/06/28 00:55:56;;;;;;;0.93;0.73;;;19.40;99.90;;;;;;5092990;28;20291;-71
2022/06/28 00:58:44;;;;;;;0.50;0.50;;;19.40;99.90;;;;;;5093269;28;20459;-71
2022/06/28 01:01:32;;;;;;;1.05;1.05;;;19.30;99.90;;;;;;5095522;28;20220;-71
2022/06/28 01:04:20;;;;;;;0.40;0.40;;;19.30;99.90;;;;;;5089000;28;20200;-72
2022/06/28 01:07:09;;;;;;;4.97;3.38;;;19.30;99.90;;;;;;5097301;28;20672;-71
2022/06/28 01:09:57;;;;;;;2.92;2.55;;;19.20;99.90;;;;;;5095414;28;20209;-71
2022/06/28 01:12:46;;;;;;;0.50;0.50;;;19.10;99.90;;;;;;5096469;28;20223;-72
2022/06/28 01:15:35;;;;;;;4.93;3.53;;;19.00;99.90;;;;;;5099174;28;20719;-71
2022/06/28 01:18:23;;;;;;;1.88;1.55;;;18.80;99.90;;;;;;5098845;28;20618;-71
2022/06/28 01:21:13;;;;;;;0.95;0.95;;;18.80;99.90;;;;;;5095943;28;20909;-71
2022/06/28 01:24:04;;;;;;;2.60;2.22;;;18.70;99.90;;;;;;5095384;28;20269;-72
2022/06/28 01:26:52;;;;;;;0.70;0.70;;;18.70;99.90;;;;;;5096978;28;20241;-72
2022/06/28 01:29:41;;;;;;;0.40;0.40;;;18.60;99.90;;;;;;5076566;28;20293;-71
2022/06/28 01:32:29;;;;;;;1.77;1.10;;;18.60;99.90;;;;;;5074360;28;20193;-71
2022/06/28 01:35:17;;;;;;;0.40;0.40;;;18.60;99.90;;;;;;5070246;28;20232;-71
2022/06/28 01:38:07;;;;;;;0.40;0.40;;;18.70;99.90;;;;;;5096089;28;20200;-70
2022/06/28 01:40:56;;;;;;;0.40;0.40;;;18.80;99.90;;;;;;5098108;28;20311;-71
2022/06/28 01:43:44;;;;;;;0.40;0.40;;;18.70;99.90;;;;;;5101718;28;20227;-71
2022/06/28 01:46:35;;;;;;;0.40;0.40;;;18.70;99.90;;;;;;5099488;28;20234;-71
2022/06/28 01:49:24;;;;;;;0.63;0.63;;;18.60;99.90;;;;;;5101488;28;20716;-70
2022/06/28 01:52:12;;;;;;;3.22;2.35;;;18.60;99.90;;;;;;5081367;28;20192;-71
2022/06/28 01:55:00;;;;;;;8.63;4.03;;;18.60;99.90;;;;;;5079674;28;20248;-71
2022/06/28 01:57:49;;;;;;;1.60;1.50;;;18.50;99.90;;;;;;5082704;28;20250;-71
2022/06/28 02:00:38;;;;;;;5.15;1.35;;;18.40;99.90;;;;;;5083821;28;20224;-71
2022/06/28 02:03:26;;;;;;;1.88;1.77;;;18.50;99.90;;;;;;5083100;28;20313;-71
2022/06/28 02:06:14;;;;;;;0.40;0.40;;;18.40;99.90;;;;;;5083853;28;20220;-70
2022/06/28 02:09:02;;;;;;;4.18;2.58;;;18.40;99.90;;;;;;5082624;28;20207;-70
2022/06/28 02:11:51;;;;;;;0.40;0.40;;;18.60;99.90;;;;;;5084355;28;20228;-70
2022/06/28 02:14:40;;;;;;;3.63;1.95;;;18.50;99.90;;;;;;5080917;28;20244;-72
2022/06/28 02:17:28;;;;;;;0.63;0.40;;;18.40;99.90;;;;;;5081667;28;20205;-70
2022/06/28 02:20:16;;;;;;;1.73;1.60;;;18.40;99.90;;;;;;5079894;28;20273;-70
2022/06/28 02:23:04;;;;;;;3.90;1.58;;;18.40;99.90;;;;;;5082506;28;20205;-71
2022/06/28 02:25:53;;;;;;;1.30;1.20;;;18.50;99.90;;;;;;5094202;28;20225;-70
2022/06/28 02:28:41;;;;;;;0.40;0.40;;;18.70;99.90;;;;;;5110201;28;20218;-73
2022/06/28 02:31:31;;;;;;;1.77;1.05;;;18.60;99.90;;;;;;5119093;28;20226;-72
2022/06/28 02:40:27;;;;;;;0.50;0.50;;;18.60;99.90;;;;;;5118558;28;20204;-73
2022/06/28 02:43:15;;;;;;;0.40;0.40;;;18.50;99.90;;;;;;5118912;28;20180;-71
2022/06/28 02:46:03;;;;;;;3.88;3.50;;;18.60;99.90;;;;;;5116534;28;20241;-71
2022/06/28 02:48:53;;;;;;;2.47;1.40;;;18.60;99.90;;;;;;5117978;28;20191;-73
2022/06/28 02:51:42;;;;;;;0.50;0.50;;;18.70;99.90;;;;;;5118747;28;20229;-74
2022/06/28 02:54:30;;;;;;;0.40;0.40;;;18.60;99.90;;;;;;5118429;28;20207;-73
2022/06/28 02:57:18;;;;;;;0.40;0.40;;;18.60;99.90;;;;;;5115339;28;20208;-72
2022/06/28 03:00:10;;;;;;;0.40;0.40;;;18.60;99.90;;;;;;5117698;28;20184;-74
2022/06/28 03:02:58;;;;;;;0.98;0.98;;;18.70;99.90;;;;;;5104053;28;20223;-72
2022/06/28 03:05:48;;;;;;;0.40;0.40;;;18.70;99.90;;;;;;5116641;28;20216;-71
2022/06/28 03:08:36;;;;;;;0.98;0.65;;;18.70;99.90;;;;;;5114428;28;20196;-73
2022/06/28 03:11:24;;;;;;;0.40;0.40;;;18.70;99.90;;;;;;5117720;28;20219;-70
2022/06/28 03:14:12;;;;;;;0.60;0.60;;;18.80;99.90;;;;;;5117969;28;20196;-73
2022/06/28 03:17:00;;;;;;;0.60;0.60;;;18.80;99.90;;;;;;5114175;28;20229;-70
2022/06/28 03:19:48;;;;;;;0.65;0.57;;;18.80;99.90;;;;;;5117103;28;20204;-72
2022/06/28 03:22:38;;;;;;;0.40;0.40;;;18.80;99.90;;;;;;5117141;28;20211;-70
2022/06/28 03:25:26;;;;;;;0.85;0.85;;;18.80;99.90;;;;;;5116078;28;20227;-71
2022/06/28 03:28:14;;;;;;;0.40;0.40;;;18.80;99.90;;;;;;5108359;28;20180;-73
2022/06/28 03:31:03;;;;;;;0.40;0.40;;;18.80;99.90;;;;;;5094871;28;20199;-71
2022/06/28 03:33:51;;;;;;;0.40;0.40;;;18.80;99.90;;;;;;5080666;28;20819;-70
2022/06/28 03:36:39;;;;;;;0.40;0.40;;;18.70;99.90;;;;;;5092771;28;20235;-73
2022/06/28 03:39:28;;;;;;;1.73;1.58;;;18.90;99.90;;;;;;5096720;28;20215;-72
2022/06/28 03:42:16;;;;;;;0.88;0.88;;;19.00;99.90;;;;;;5096016;28;20196;-72
2022/06/28 03:45:06;;;;;;;0.40;0.40;;;19.00;99.90;;;;;;5094424;28;20221;-73
2022/06/28 03:47:54;;;;;;;0.40;0.40;;;19.00;99.90;;;;;;5094928;28;20185;-73
2022/06/28 03:50:42;;;;;;;0.40;0.40;;;19.00;99.90;;;;;;5096802;28;20189;-72
2022/06/28 03:53:30;;;;;;;0.40;0.40;;;19.00;99.90;;;;;;5092421;28;20192;-73
2022/06/28 03:56:19;;;;;;;0.95;0.82;;;19.00;99.90;;;;;;5095839;28;20204;-72
2022/06/28 03:59:07;;;;;;;0.77;0.75;;;19.00;99.90;;;;;;5095137;28;20221;-71
2022/06/28 04:01:55;;;;;;;1.17;1.17;;;18.90;99.90;;;;;;5085000;28;20217;-69
2022/06/28 04:04:44;;;;;;;1.98;1.20;;;18.80;99.90;;;;;;5095754;28;20211;-72
2022/06/28 04:07:32;;;;;;;0.40;0.40;;;18.90;99.90;;;;;;5094909;28;20223;-72
2022/06/28 04:10:20;;;;;;;0.50;0.50;;;18.80;99.90;;;;;;5089560;28;20185;-71
2022/06/28 04:13:09;;;;;;;2.00;1.73;;;18.70;99.90;;;;;;5091419;28;20197;-72
2022/06/28 04:15:57;;;;;;;0.40;0.40;;;18.60;99.90;;;;;;5095684;28;20208;-72
2022/06/28 04:18:46;;;;;;;0.40;0.40;;;18.50;99.90;;;;;;5094163;28;20231;-70
2022/06/28 04:21:34;;;;;;;0.40;0.40;;;18.40;99.90;;;;;;5091608;28;20212;-71
2022/06/28 04:24:22;;;;;;;0.50;0.50;;;18.40;99.90;;;;;;5095245;28;20219;-73
2022/06/28 04:27:10;;;;;;;0.43;0.43;;;18.30;99.90;;;;;;5092339;28;20215;-73
2022/06/28 04:30:00;;;;;;;0.50;0.50;;;18.30;99.90;;;;;;5094502;28;20180;-71
2022/06/28 04:32:48;;;;;;;0.50;0.50;;;18.30;99.90;;;;;;5092264;28;20211;-73
2022/06/28 04:35:36;;;;;;;2.88;2.45;;;18.30;99.90;;;;;;5094495;28;20235;-70
2022/06/28 04:38:24;;;;;;;0.90;0.90;;;18.20;99.90;;;;;;5094744;28;20200;-73
2022/06/28 04:41:12;;;;;;;0.95;0.95;;;18.20;99.90;;;;;;5091757;28;20324;-71
2022/06/28 04:44:01;;;;;;;1.40;1.10;;;18.20;99.90;;;;;;5084130;28;20573;-70
2022/06/28 04:46:50;;;;;;;1.65;1.38;;;18.20;99.90;;;;;;5073709;28;20203;-69
2022/06/28 04:49:38;;;;;;;1.48;0.90;;;18.10;99.90;;;;;;5074626;28;20229;-70
2022/06/28 04:52:26;;;;;;;0.50;0.50;;;18.20;99.90;;;;;;5073537;28;20286;-70
2022/06/28 04:55:14;;;;;;;0.40;0.40;;;18.20;99.90;;;;;;5074067;28;20221;-70
2022/06/28 04:58:03;;;;;;;1.05;0.88;;;18.20;99.90;;;;;;5082446;28;20661;-70
2022/06/28 05:00:51;;;;;;;0.65;0.65;;;18.00;99.90;;;;;;5083682;28;20243;-70
2022/06/28 05:04:00;;;;;;;0.45;0.45;;;18.00;99.90;;;;;;5082829;28;20262;-70
2022/06/28 05:06:48;;;;;;;0.40;0.40;;;18.00;99.90;;;;;;5088952;28;20207;-70
2022/06/28 05:09:36;;;;;;;0.55;0.55;;;18.10;99.90;;;;;;5086132;28;20219;-70
2022/06/28 05:12:25;;;;;;;1.25;1.15;;;18.00;99.90;;;;;;5089359;28;20262;-71
2022/06/28 05:15:13;;;;;;;1.67;1.15;;;18.00;99.90;;;;;;5085953;28;20266;-70
2022/06/28 05:18:01;;;;;;;0.70;0.70;;;18.00;99.90;;;;;;5084737;28;20213;-70
2022/06/28 05:20:51;;;;;;;0.40;0.40;;;18.00;99.90;;;;;;5073789;28;20258;-70
2022/06/28 05:23:39;;;;;;;0.40;0.40;;;18.00;99.90;;;;;;5073090;28;20217;-70
2022/06/28 05:26:27;;;;;;;0.60;0.50;;;18.20;99.90;;;;;;5082344;28;20637;-70
2022/06/28 05:29:15;;;;;;;0.70;0.70;;;18.30;99.90;;;;;;5076136;28;20617;-70
2022/06/28 05:32:04;;;;;;;0.60;0.60;;;18.30;99.90;;;;;;5074719;28;20196;-70
2022/06/28 05:34:52;;;;;;;1.30;1.20;;;18.50;99.90;;;;;;5076221;28;20793;-70
2022/06/28 05:37:42;;;;;;;0.40;0.40;;;18.70;99.90;;;;;;5076768;28;20205;-70
2022/06/28 05:40:30;;;;;;;0.80;0.50;;;18.60;99.90;;;;;;5088329;28;20292;-69
2022/06/28 05:43:18;;;;;;;2.35;1.05;;;18.60;99.90;;;;;;5096933;28;20242;-69
2022/06/28 05:46:06;;;;;;;1.30;1.20;;;18.80;99.90;;;;;;5089747;28;20259;-70
2022/06/28 05:48:54;;;;;;;0.40;0.40;;;18.60;99.90;;;;;;5096760;28;20256;-69
2022/06/28 05:51:43;;;;;;;0.40;0.40;;;18.70;99.90;;;;;;5077532;28;20200;-69
2022/06/28 05:54:33;;;;;;;0.50;0.50;;;18.70;99.90;;;;;;5076385;28;20216;-69
2022/06/28 05:57:21;;;;;;;1.10;1.00;;;18.80;99.90;;;;;;5079336;28;20197;-71
2022/06/28 06:00:10;;;;;;;0.82;0.68;;;18.80;99.90;;;;;;5075977;28;20258;-70
2022/06/28 06:02:58;;;;;;;0.40;0.40;;;18.70;99.90;;;;;;5076711;28;20228;-71
2022/06/28 06:05:46;;;;;;;0.80;0.80;;;18.70;99.90;;;;;;5075197;28;20310;-70
2022/06/28 06:08:35;;;;;;;0.65;0.50;;;18.70;99.90;;;;;;5076578;28;20208;-69
2022/06/28 06:11:24;;;;;;;0.50;0.50;;;18.80;99.90;;;;;;5076223;28;20561;-70
2022/06/28 06:14:13;;;;;;;0.45;0.45;;;18.70;99.90;;;;;;5075364;28;20273;-70
2022/06/28 06:17:01;;;;;;;1.92;1.15;;;18.70;99.90;;;;;;5075970;28;20201;-68
2022/06/28 06:19:49;;;;;;;0.60;0.55;;;18.70;99.90;;;;;;5075172;28;20197;-69
2022/06/28 06:22:37;;;;;;;1.75;0.85;;;18.90;99.90;;;;;;5075383;28;20243;-69
2022/06/28 06:25:26;;;;;;;1.10;1.10;;;19.00;99.90;;;;;;5075350;28;20228;-69
2022/06/28 06:28:16;;;;;;;3.35;1.08;;;19.00;99.90;;;;;;5083460;28;20196;-72
2022/06/28 06:31:04;;;;;;;0.90;0.90;;;19.10;99.90;;;;;;5095231;28;20204;-70
2022/06/28 06:33:52;;;;;;;0.45;0.45;;;19.10;99.90;;;;;;5079469;28;20193;-69
2022/06/28 06:36:40;;;;;;;0.60;0.60;;;19.00;99.90;;;;;;5075248;28;20209;-69
2022/06/28 06:39:29;;;;;;;0.40;0.40;;;19.00;99.90;;;;;;5075691;28;20275;-72
2022/06/28 06:42:21;;;;;;;0.40;0.40;;;19.00;99.90;;;;;;5075769;28;20615;-69
2022/06/28 06:45:11;;;;;;;0.70;0.63;;;18.90;99.90;;;;;;5074546;28;20217;-70
2022/06/28 06:47:59;;;;;;;0.77;0.77;;;19.10;99.90;;;;;;5076721;28;20204;-69
2022/06/28 06:50:47;;;;;;;0.60;0.60;;;19.10;99.90;;;;;;5076240;28;20208;-70
2022/06/28 06:53:36;;;;;;;0.65;0.65;;;19.10;99.90;;;;;;5076131;28;20197;-70
2022/06/28 06:56:24;;;;;;;0.50;0.50;;;19.10;99.90;;;;;;5075265;28;20228;-70
2022/06/28 06:59:14;;;;;;;0.70;0.70;;;19.20;99.90;;;;;;5075970;28;20734;-69
2022/06/28 07:02:03;;;;;;;1.73;0.52;;;19.30;99.90;;;;;;5077122;28;20216;-70
2022/06/28 07:04:52;;;;;;;0.70;0.68;;;19.30;99.90;;;;;;5074853;28;20807;-71
2022/06/28 07:07:41;;;;;;;0.40;0.40;;;19.30;99.90;;;;;;5076041;28;20311;-69
2022/06/28 07:10:29;;;;;;;0.95;0.50;;;19.30;99.90;;;;;;5084161;28;20604;-69
2022/06/28 07:13:17;;;;;;;2.78;2.05;;;19.40;99.90;;;;;;5076204;28;20631;-69
2022/06/28 07:16:06;;;;;;;0.60;0.50;;;19.40;99.90;;;;;;5095873;28;20269;-69
2022/06/28 07:18:56;;;;;;;0.90;0.90;;;19.50;99.90;;;;;;5097198;28;20204;-70
2022/06/28 07:21:44;;;;;;;0.40;0.40;;;19.60;99.90;;;;;;5095230;28;20683;-68
2022/06/28 07:24:32;;;;;;;0.63;0.60;;;19.70;99.90;;;;;;5096019;28;20239;-70
2022/06/28 07:27:20;;;;;;;0.40;0.40;;;19.70;99.90;;;;;;5090157;28;20207;-69
2022/06/28 07:30:10;;;;;;;0.50;0.50;;;19.80;99.90;;;;;;5090635;28;20254;-70
2022/06/28 07:32:58;;;;;;;0.95;0.68;;;19.90;99.90;;;;;;5086473;28;20212;-69
2022/06/28 07:35:47;;;;;;;1.05;0.93;;;19.90;99.90;;;;;;5077808;28;20228;-69
2022/06/28 07:38:35;;;;;;;0.68;0.68;;;20.00;99.90;;;;;;5079269;28;20206;-69
2022/06/28 07:41:24;;;;;;;0.50;0.50;;;20.20;99.90;;;;;;5095677;28;20249;-69
2022/06/28 07:44:12;;;;;;;0.40;0.40;;;20.10;99.90;;;;;;5085653;28;20226;-70
2022/06/28 07:47:00;;;;;;;1.67;1.00;;;20.30;99.90;;;;;;5087794;28;20238;-69
2022/06/28 07:53:00;;;;;;;0.60;0.60;;;20.50;99.90;;;;;;5093797;28;20220;-69
2022/06/28 07:55:48;;;;;;;0.50;0.50;;;20.50;99.90;;;;;;5082589;28;20215;-70
2022/06/28 07:58:43;;;;;;;0.50;0.50;;;20.70;99.90;;;;;;5086231;28;20314;-70
2022/06/28 08:01:31;;;;;;;0.40;0.40;;;20.90;99.90;;;;;;5082195;28;20278;-69
2022/06/28 08:04:19;;;;;;;0.50;0.50;;;20.80;99.90;;;;;;5075197;28;20660;-73
2022/06/28 08:07:07;;;;;;;0.40;0.40;;;20.80;99.90;;;;;;5108979;28;20207;-70
2022/06/28 08:09:57;;;;;;;0.60;0.60;;;20.80;99.90;;;;;;5114612;28;20226;-70
2022/06/28 08:12:46;;;;;;;0.45;0.45;;;20.90;99.90;;;;;;5115074;28;20207;-70
2022/06/28 08:15:34;;;;;;;1.02;1.02;;;20.90;99.90;;;;;;5115500;28;20243;-70
2022/06/28 08:18:22;;;;;;;0.70;0.50;;;21.20;99.90;;;;;;5099413;28;20200;-70
2022/06/28 08:21:10;;;;;;;0.50;0.50;;;21.50;99.90;;;;;;5094369;28;20262;-70
2022/06/28 08:23:58;;;;;;;1.38;1.13;;;21.70;99.90;;;;;;5110066;22;20663;-69
2022/06/28 08:26:48;;;;;;;2.08;1.70;;;21.60;99.90;;;;;;5052076;28;20198;-71
2022/06/28 08:29:36;;;;;;;1.05;0.98;;;21.70;99.90;;;;;;5050594;28;20205;-73
2022/06/28 08:32:24;;;;;;;1.17;0.68;;;21.70;99.90;;;;;;5052172;28;20197;-73
2022/06/28 08:35:13;;;;;;;0.45;0.45;;;21.50;99.90;;;;;;5059017;28;20232;-72
2022/06/28 08:38:01;;;;;;;0.60;0.60;;;21.60;99.90;;;;;;5060949;28;20201;-71
2022/06/28 08:40:49;;;;;;;0.82;0.82;;;21.60;99.90;;;;;;5061432;28;20224;-70
2022/06/28 08:43:39;;;;;;;0.40;0.40;;;21.70;99.90;;;;;;5058276;28;20200;-71
2022/06/28 08:46:27;;;;;;;0.47;0.47;;;22.00;99.90;;;;;;5060566;28;20661;-70
2022/06/28 08:49:21;;;;;;;0.40;0.40;;;22.40;99.90;;;;;;5056572;28;20223;-71
2022/06/28 08:52:10;;;;;;;0.60;0.60;;;22.30;99.90;;;;;;5051913;28;20201;-69
2022/06/28 08:55:00;;;;;;;0.60;0.50;;;22.30;99.90;;;;;;5061743;28;20262;-69
2022/06/28 08:57:49;;;;;;;0.50;0.50;;;22.40;99.90;;;;;;5069848;28;20211;-70
2022/06/28 09:00:38;;;;;;;0.45;0.45;;;22.60;99.90;;;;;;5071275;28;20212;-71
2022/06/28 09:03:26;;;;;;;1.90;0.95;;;22.80;99.90;;;;;;5058058;28;20201;-70
2022/06/28 09:06:14;;;;;;;0.40;0.40;;;22.60;99.90;;;;;;5050338;28;20209;-72
2022/06/28 09:09:03;;;;;;;2.63;2.35;;;22.50;99.90;;;;;;5057351;28;20203;-72
2022/06/28 09:11:53;;;;;;;0.50;0.50;;;22.60;99.90;;;;;;5055421;28;20700;-70
2022/06/28 09:14:42;;;;;;;0.50;0.50;;;22.90;99.90;;;;;;5050851;28;20799;-71
2022/06/28 09:17:33;;;;;;;0.50;0.50;;;23.00;99.90;;;;;;5068464;28;20688;-71
2022/06/28 09:20:35;;;;;;;0.60;0.50;;;23.50;99.90;;;;;;5071690;28;20192;-70
2022/06/28 09:23:32;;;;;;;0.50;0.50;;;23.70;99.90;;;;;;5070764;28;20219;-69
2022/06/28 09:26:22;;;;;;;0.40;0.40;;;23.60;99.90;;;;;;5071495;28;20204;-70
2022/06/28 09:29:13;;;;;;;0.50;0.50;;;23.50;99.90;;;;;;5071397;28;20304;-71
2022/06/28 09:32:01;;;;;;;0.50;0.50;;;23.20;99.90;;;;;;5070799;28;20197;-70
2022/06/28 09:34:56;;;;;;;0.40;0.40;;;23.00;99.90;;;;;;5070511;28;20266;-70
2022/06/28 09:37:47;;;;;;;0.40;0.40;;;23.20;99.90;;;;;;5071351;28;20201;-69
2022/06/28 09:40:36;;;;;;;0.50;0.50;;;23.60;99.90;;;;;;5066004;28;20208;-69
2022/06/28 09:43:30;;;;;;;0.50;0.50;;;24.10;99.90;;;;;;5072644;28;20680;-69
2022/06/28 09:46:19;;;;;;;0.85;0.73;;;24.00;99.90;;;;;;5063257;28;20213;-72
2022/06/28 09:49:09;;;;;;;0.60;0.60;;;23.60;99.90;;;;;;5049954;28;20201;-71
2022/06/28 09:52:00;;;;;;;0.40;0.40;;;23.50;99.90;;;;;;5051317;28;20611;-70
2022/06/28 09:54:51;;;;;;;0.57;0.57;;;23.30;99.90;;;;;;5050896;28;20216;-70
2022/06/28 09:57:39;;;;;;;0.40;0.40;;;22.90;99.90;;;;;;5055949;28;20193;-70
2022/06/28 10:00:29;;;;;;;0.40;0.40;;;22.60;99.90;;;;;;5053535;28;20229;-68
2022/06/28 10:03:18;;;;;;;0.40;0.40;;;22.70;99.90;;;;;;5069011;28;20209;-69
2022/06/28 10:06:07;;;;;;;0.40;0.40;;;23.10;99.90;;;;;;5071282;28;20231;-69
2022/06/28 10:08:56;;;;;;;0.77;0.77;;;23.60;99.90;;;;;;5071470;28;20200;-68
2022/06/28 10:15:04;;;;;;;0.40;0.40;;;23.80;99.90;;;;;;5068697;28;20678;-69
2022/06/28 10:17:58;;;;;;;0.50;0.50;;;23.90;99.90;;;;;;5055494;28;20200;-69
2022/06/28 10:20:47;;;;;;;0.40;0.40;;;24.10;99.90;;;;;;5060900;28;20204;-69
2022/06/28 10:23:38;;;;;;;0.50;0.50;;;24.30;99.90;;;;;;5069875;28;20274;-73
2022/06/28 10:26:27;;;;;;;0.50;0.50;;;24.90;99.90;;;;;;5054217;28;20229;-71
2022/06/28 10:29:16;;;;;;;0.60;0.60;;;25.20;99.90;;;;;;5070952;28;20232;-69
2022/06/28 10:32:39;;;;;;;1.25;1.08;;;25.20;99.90;;;;;;5073351;28;20205;-69
2022/06/28 10:35:55;;;;;;;0.40;0.40;;;25.10;99.90;;;;;;5061121;28;20216;-70
2022/06/28 10:39:11;;;;;;;0.40;0.40;;;25.00;99.90;;;;;;5053311;28;20708;-71
2022/06/28 10:42:12;;;;;;;0.50;0.50;;;24.80;99.90;;;;;;5052333;28;20216;-70
2022/06/28 10:45:00;;;;;;;0.50;0.50;;;24.50;99.90;;;;;;5057143;28;20701;-70
2022/06/28 10:48:09;;;;;;;0.40;0.40;;;24.20;99.90;;;;;;5053585;28;20212;-70
2022/06/28 10:50:58;;;;;;;0.43;0.43;;;24.20;99.90;;;;;;5053155;28;20659;-69
2022/06/28 10:54:05;;;;;;;0.70;0.70;;;24.30;99.90;;;;;;5071625;28;20276;-68
2022/06/28 10:56:56;;;;;;;0.50;0.50;;;24.60;99.90;;;;;;5053373;28;20197;-69
2022/06/28 10:59:48;;;;;;;0.50;0.50;;;24.20;99.90;;;;;;5067145;28;20282;-70
2022/06/28 11:02:47;;;;;;;0.40;0.40;;;24.10;99.90;;;;;;5056085;28;20669;-69
2022/06/28 11:05:47;;;;;;;0.40;0.40;;;24.20;99.90;;;;;;5065697;28;20220;-70
2022/06/28 11:08:54;;;;;;;0.60;0.60;;;24.10;99.90;;;;;;5062163;28;20190;-69
2022/06/28 11:12:05;;;;;;;0.55;0.55;;;23.90;99.90;;;;;;5060072;28;20238;-70
2022/06/28 11:14:57;;;;;;;0.40;0.40;;;23.60;99.90;;;;;;5064995;28;20249;-69
2022/06/28 11:17:45;;;;;;;0.40;0.40;;;23.50;99.90;;;;;;5063341;28;20193;-69
2022/06/28 11:20:33;;;;;;;0.40;0.40;;;23.60;99.90;;;;;;5062840;28;20193;-70
2022/06/28 11:23:27;;;;;;;0.40;0.40;;;24.00;99.90;;;;;;5073000;28;20640;-70
2022/06/28 11:29:21;;;;;;;0.50;0.50;;;25.00;99.90;;;;;;5069684;28;20279;-71
2022/06/28 11:32:19;;;;;;;0.93;0.93;;;25.30;99.90;;;;;;5068976;28;20201;-69
2022/06/28 11:35:10;;;;;;;0.40;0.40;;;25.30;99.90;;;;;;5070896;28;20247;-71
2022/06/28 11:38:01;;;;;;;0.50;0.50;;;25.00;99.90;;;;;;5072757;28;20685;-70
2022/06/28 11:40:50;;;;;;;0.40;0.40;;;24.90;99.90;;;;;;5072375;28;20201;-69
2022/06/28 11:43:39;;;;;;;0.40;0.40;;;24.90;99.90;;;;;;5072584;28;20201;-72
2022/06/28 11:46:28;;;;;;;0.40;0.40;;;25.00;99.90;;;;;;5071730;28;20270;-70
2022/06/28 11:49:28;;;;;;;0.40;0.40;;;24.90;99.90;;;;;;5061824;28;20223;-70
2022/06/28 11:52:17;;;;;;;0.40;0.40;;;25.00;99.90;;;;;;5062198;28;20732;-70
2022/06/28 11:55:05;;;;;;;0.40;0.40;;;25.10;98.90;;;;;;5054798;28;20225;-71
2022/06/28 11:58:15;;;;;;;0.50;0.50;;;25.30;97.80;;;;;;5055442;28;20205;-71
2022/06/28 12:01:08;;;;;;;0.40;0.40;;;25.10;96.70;;;;;;5072656;28;20208;-69
2022/06/28 12:03:59;;;;;;;0.40;0.40;;;24.70;96.80;;;;;;5072936;28;20761;-69
2022/06/28 12:06:48;;;;;;;0.70;0.70;;;24.50;95.20;;;;;;5072145;28;20224;-70
2022/06/28 12:09:46;;;;;;;0.40;0.40;;;24.40;95.10;;;;;;5071192;28;20197;-71
2022/06/28 12:12:42;;;;;;;0.40;0.40;;;24.50;93.70;;;;;;5053707;28;20682;-69
2022/06/28 12:15:33;;;;;;;0.40;0.40;;;24.60;93.40;;;;;;5055336;28;20221;-69
2022/06/28 12:18:21;;;;;;;0.50;0.50;;;24.80;92.60;;;;;;5070587;28;20250;-68
2022/06/28 12:21:13;;;;;;;0.40;0.40;;;25.20;92.40;;;;;;5072550;28;20201;-69
2022/06/28 12:24:04;;;;;;;0.40;0.40;;;25.40;92.70;;;;;;5071084;28;20723;-72
2022/06/28 12:26:52;;;;;;;0.70;0.68;;;25.70;92.30;;;;;;5059825;28;20228;-71
2022/06/28 12:29:40;;;;;;;0.45;0.45;;;25.90;93.50;;;;;;5063138;28;20201;-71
2022/06/28 12:32:29;;;;;;;0.40;0.40;;;26.00;93.30;;;;;;5062308;28;20197;-71
2022/06/28 12:35:34;;;;;;;0.50;0.50;;;26.00;93.60;;;;;;5056231;28;20217;-71
2022/06/28 12:38:23;;;;;;;0.40;0.40;;;26.20;92.40;;;;;;5051865;28;20198;-71
2022/06/28 12:41:12;;;;;;;0.40;0.40;;;26.30;92.30;;;;;;5051647;28;20217;-70
2022/06/28 12:44:00;;;;;;;0.40;0.40;;;26.90;91.60;;;;;;5052641;28;20229;-68
2022/06/28 12:46:51;;;;;;;0.40;0.40;;;28.50;90.10;;;;;;5052516;28;20218;-69
2022/06/28 12:49:39;;;;;;;0.40;0.40;;;31.10;86.60;;;;;;5052254;28;20216;-68
2022/06/28 12:52:28;;;;;;;0.40;0.40;;;34.00;76.00;;;;;;5052291;28;20197;-69
2022/06/28 12:55:16;;;;;;;0.40;0.40;;;36.40;64.60;;;;;;5052621;28;20713;-70
2022/06/28 12:58:06;;;;;;;0.40;0.40;;;38.10;56.60;;;;;;5052159;28;20220;-70
2022/06/28 13:00:54;;;;;;;0.40;0.40;;;39.70;52.90;;;;;;5051944;28;20631;-69
2022/06/28 13:03:43;;;;;;;0.73;0.73;;;41.00;48.70;;;;;;5059252;28;20208;-69
2022/06/28 13:06:32;;;;;;;0.50;0.50;;;41.70;44.80;;;;;;5060497;28;20224;-70
2022/06/28 13:09:20;;;;;;;0.40;0.40;;;41.90;41.70;;;;;;5070227;28;20200;-70
2022/06/28 13:12:08;;;;;;;0.40;0.40;;;41.70;39.30;;;;;;5069416;28;20203;-69
2022/06/28 13:14:58;;;;;;;0.40;0.40;;;41.00;38.50;;;;;;5069170;28;20228;-70
2022/06/28 13:17:46;;;;;;;0.43;0.43;;;41.50;40.20;;;;;;5069627;28;20285;-69
2022/06/28 13:20:34;;;;;;;0.40;0.40;;;42.20;37.60;;;;;;5070927;28;20239;-70
2022/06/28 13:23:27;;;;;;;0.40;0.40;;;42.40;38.30;;;;;;5067458;28;20209;-70
2022/06/28 13:26:16;;;;;;;0.50;0.50;;;43.70;37.40;;;;;;5071122;28;20221;-70
2022/06/28 13:29:11;;;;;;;0.50;0.50;;;44.50;35.00;;;;;;5055095;28;20215;-73
2022/06/28 13:32:01;;;;;;;0.50;0.50;;;45.10;34.90;;;;;;5053783;28;20284;-71
2022/06/28 13:34:49;;;;;;;0.50;0.50;;;46.70;34.90;;;;;;5059279;28;20221;-73
2022/06/28 13:37:37;;;;;;;0.60;0.60;;;47.10;34.30;;;;;;5057886;28;20255;-71
2022/06/28 13:40:29;;;;;;;0.50;0.50;;;46.80;34.80;;;;;;5060936;28;20240;-70
2022/06/28 13:43:36;;;;;;;0.70;0.70;;;46.80;34.70;;;;;;5068832;28;20284;-71
2022/06/28 13:46:24;;;;;;;0.60;0.60;;;46.80;33.10;;;;;;5066400;28;20993;-72
2022/06/28 13:49:13;;;;;;;0.60;0.60;;;46.90;33.80;;;;;;5063746;28;20682;-71
2022/06/28 13:52:01;;;;;;;0.50;0.50;;;46.90;33.00;;;;;;5061375;28;20203;-70
2022/06/28 13:54:50;;;;;;;0.50;0.50;;;46.30;33.20;;;;;;5072894;28;20269;-71
2022/06/28 13:57:38;;;;;;;0.60;0.60;;;46.40;32.70;;;;;;5054438;28;20198;-70
2022/06/28 14:00:27;;;;;;;0.50;0.50;;;42.80;34.00;;;;;;5053788;28;20248;-71
2022/06/28 14:03:16;;;;;;;0.50;0.50;;;38.60;37.00;;;;;;5054795;28;20201;-70
2022/06/28 14:06:06;;;;;;;0.50;0.50;;;37.80;39.10;;;;;;5056096;28;20204;-69
2022/06/28 14:08:54;;;;;;;0.50;0.50;;;38.80;38.80;;;;;;5056376;28;20240;-70
2022/06/28 14:11:42;;;;;;;0.50;0.50;;;41.10;37.00;;;;;;5055770;28;20209;-70
2022/06/28 14:14:36;;;;;;;0.55;0.55;;;42.90;35.80;;;;;;5067605;28;20247;-70
2022/06/28 14:17:24;;;;;;;0.50;0.50;;;43.30;35.20;;;;;;5066306;28;20185;-70
2022/06/28 14:20:12;;;;;;;0.50;0.50;;;44.00;34.90;;;;;;5063556;28;20574;-70
2022/06/28 14:23:02;;;;;;;0.85;0.85;;;45.70;33.00;;;;;;5063123;28;20211;-70
2022/06/28 14:25:50;;;;;;;0.60;0.60;;;47.40;32.40;;;;;;5064981;28;20302;-70
2022/06/28 14:28:38;;;;;;;0.60;0.60;;;48.70;30.90;;;;;;5063067;28;20654;-70
2022/06/28 14:31:27;;;;;;;0.50;0.50;;;47.30;31.20;;;;;;5065960;28;20203;-70
2022/06/28 14:34:32;;;;;;;0.50;0.50;;;46.00;32.30;;;;;;5065305;28;20228;-70
2022/06/28 14:37:20;;;;;;;0.50;0.50;;;45.10;33.50;;;;;;5064292;28;20328;-70
2022/06/28 14:40:11;;;;;;;0.50;0.50;;;45.80;33.20;;;;;;5063896;28;20203;-70
2022/06/28 14:43:00;;;;;;;0.60;0.60;;;46.90;32.30;;;;;;5063198;28;20206;-70
2022/06/28 14:45:48;;;;;;;0.50;0.50;;;47.50;32.00;;;;;;5062277;28;20225;-70
2022/06/28 14:48:40;;;;;;;0.60;0.60;;;47.90;32.00;;;;;;5065126;28;20583;-70
2022/06/28 14:51:30;;;;;;;0.60;0.60;;;48.50;30.90;;;;;;5064754;28;20272;-71
2022/06/28 14:54:18;;;;;;;0.70;0.70;;;47.50;30.20;;;;;;5062481;28;20221;-70
2022/06/28 14:57:08;;;;;;;0.60;0.60;;;46.60;30.60;;;;;;5063031;28;20305;-70
2022/06/28 14:59:56;;;;;;;0.60;0.60;;;47.60;30.40;;;;;;5061979;28;20210;-71
2022/06/28 15:02:44;;;;;;;0.60;0.60;;;48.40;30.60;;;;;;5059585;28;20193;-71